Time,TemperatureF,DewpointF,PressureIn,WindDirection,WindDirectionDegrees,WindSpeedMPH,WindSpeedGustMPH,Humidity,HourlyPrecipIn,Conditions,Clouds,dailyrainin,SoftwareType,DateUTC
2013-03-29 00:00:00,40.9,33.1,29.80,SE,132,0.0,0.0,74,0.00,,,0.00,VWS V14.01,2013-03-29 04:00:00,
2013-03-29 00:08:00,40.4,34.8,29.80,SE,133,0.0,0.0,80,0.00,,,0.00,VWS V14.01,2013-03-29 04:08:00,
2013-03-29 00:10:00,40.2,34.7,29.80,SE,132,0.0,0.0,80,0.00,,,0.00,VWS V14.01,2013-03-29 04:10:00,
2013-03-29 00:18:00,40.2,35.4,29.80,SE,132,0.0,0.0,83,0.00,,,0.00,VWS V14.01,2013-03-29 04:18:00,
2013-03-29 00:20:00,40.2,35.4,29.80,SE,132,0.0,0.0,83,0.00,,,0.00,VWS V14.01,2013-03-29 04:20:00,
2013-03-29 00:23:00,40.2,35.4,29.80,SE,133,0.0,0.0,83,0.00,,,0.00,VWS V14.01,2013-03-29 04:23:00,
2013-03-29 00:28:00,39.6,36.2,29.80,SE,132,0.0,0.0,87,0.00,,,0.00,VWS V14.01,2013-03-29 04:28:00,
2013-03-29 00:30:00,39.6,36.2,29.80,SE,132,0.0,0.0,87,0.00,,,0.00,VWS V14.01,2013-03-29 04:30:00,
2013-03-29 00:33:00,39.6,36.2,29.80,SE,132,0.0,0.0,87,0.00,,,0.00,VWS V14.01,2013-03-29 04:33:00,
2013-03-29 00:38:00,39.6,36.9,29.80,SE,133,0.0,0.0,90,0.00,,,0.00,VWS V14.01,2013-03-29 04:38:00,
2013-03-29 00:43:00,39.5,36.0,29.80,SE,133,0.0,0.0,87,0.00,,,0.00,VWS V14.01,2013-03-29 04:43:00,
2013-03-29 00:48:00,39.1,36.3,29.80,SE,133,0.0,0.0,90,0.00,,,0.00,VWS V14.01,2013-03-29 04:48:00,
2013-03-29 00:50:00,38.9,36.2,29.80,SE,134,0.0,0.0,90,0.00,,,0.00,VWS V14.01,2013-03-29 04:50:00,
2013-03-29 00:58:00,38.9,36.8,29.80,SSW,204,0.0,0.0,92,0.00,,,0.00,VWS V14.01,2013-03-29 04:58:00,
2013-03-29 01:00:00,38.9,36.8,29.80,SSW,204,0.0,0.0,92,0.00,,,0.00,VWS V14.01,2013-03-29 05:00:00,
2013-03-29 01:03:00,38.9,36.8,29.80,SSW,204,0.0,0.0,92,0.00,,,0.00,VWS V14.01,2013-03-29 05:03:00,
2013-03-29 01:08:00,38.9,36.8,29.80,South,177,0.0,0.0,92,0.00,,,0.00,VWS V14.01,2013-03-29 05:08:00,
2013-03-29 01:10:00,38.9,36.8,29.80,SSE,158,0.0,0.0,92,0.00,,,0.00,VWS V14.01,2013-03-29 05:10:00,
2013-03-29 01:13:00,38.9,36.2,29.80,South,175,0.0,0.0,90,0.00,,,0.00,VWS V14.01,2013-03-29 05:13:00,
2013-03-29 01:18:00,39.6,36.9,29.80,South,176,0.0,0.0,90,0.00,,,0.00,VWS V14.01,2013-03-29 05:18:00,
2013-03-29 01:20:00,40.0,36.6,29.80,South,176,0.0,0.0,87,0.00,,,0.00,VWS V14.01,2013-03-29 05:20:00,
2013-03-29 01:23:00,40.0,36.6,29.80,South,175,0.0,0.0,87,0.00,,,0.00,VWS V14.01,2013-03-29 05:23:00,
2013-03-29 01:28:00,40.2,36.1,29.80,South,175,0.0,0.0,85,0.00,,,0.00,VWS V14.01,2013-03-29 05:28:00,
2013-03-29 01:30:00,40.2,36.1,29.80,South,175,0.0,0.0,85,0.00,,,0.00,VWS V14.01,2013-03-29 05:30:00,
2013-03-29 01:33:00,40.2,36.1,29.80,South,175,0.0,0.0,85,0.00,,,0.00,VWS V14.01,2013-03-29 05:33:00,
2013-03-29 01:38:00,40.2,35.4,29.80,South,173,0.0,0.0,83,0.00,,,0.00,VWS V14.01,2013-03-29 05:38:00,
2013-03-29 01:40:00,40.2,35.4,29.80,South,173,0.0,0.0,83,0.00,,,0.00,VWS V14.01,2013-03-29 05:40:00,
2013-03-29 01:43:00,40.0,34.5,29.80,South,173,0.0,0.0,80,0.00,,,0.00,VWS V14.01,2013-03-29 05:43:00,
2013-03-29 01:48:00,39.5,34.7,29.80,South,173,0.0,0.0,83,0.00,,,0.00,VWS V14.01,2013-03-29 05:48:00,
2013-03-29 01:49:00,39.5,34.7,29.80,South,173,0.0,0.0,83,0.00,,,0.00,VWS V14.01,2013-03-29 05:49:00,
2013-03-29 01:58:00,39.3,34.5,29.80,South,173,0.0,0.0,83,0.00,,,0.00,VWS V14.01,2013-03-29 05:58:00,
2013-03-29 02:00:00,39.3,34.5,29.80,South,173,0.0,0.0,83,0.00,,,0.00,VWS V14.01,2013-03-29 06:00:00,
2013-03-29 02:03:00,39.3,34.5,29.80,South,173,0.0,0.0,83,0.00,,,0.00,VWS V14.01,2013-03-29 06:03:00,
2013-03-29 02:08:00,39.3,34.5,29.80,South,173,0.0,0.0,83,0.00,,,0.00,VWS V14.01,2013-03-29 06:08:00,
2013-03-29 02:10:00,38.7,34.7,29.80,South,173,0.0,0.0,85,0.00,,,0.00,VWS V14.01,2013-03-29 06:10:00,
2013-03-29 02:13:00,38.7,34.7,29.80,South,173,0.0,0.0,85,0.00,,,0.00,VWS V14.01,2013-03-29 06:13:00,
2013-03-29 02:18:00,38.0,35.3,29.80,South,173,0.0,0.0,90,0.00,,,0.00,VWS V14.01,2013-03-29 06:18:00,
2013-03-29 02:20:00,37.8,35.7,29.80,South,173,0.0,0.0,92,0.00,,,0.00,VWS V14.01,2013-03-29 06:20:00,
2013-03-29 02:23:00,37.7,35.5,29.80,South,173,0.0,0.0,92,0.00,,,0.00,VWS V14.01,2013-03-29 06:23:00,
2013-03-29 02:28:00,37.3,35.2,29.80,South,173,0.0,0.0,92,0.00,,,0.00,VWS V14.01,2013-03-29 06:28:00,
2013-03-29 02:33:00,36.6,33.8,29.80,South,173,0.0,0.0,90,0.00,,,0.00,VWS V14.01,2013-03-29 06:33:00,
2013-03-29 02:38:00,36.6,33.8,29.80,South,173,0.0,0.0,90,0.00,,,0.00,VWS V14.01,2013-03-29 06:38:00,
2013-03-29 02:40:00,36.6,33.8,29.80,South,173,0.0,0.0,90,0.00,,,0.00,VWS V14.01,2013-03-29 06:40:00,
2013-03-29 02:43:00,36.6,33.8,29.80,South,173,0.0,0.0,90,0.00,,,0.00,VWS V14.01,2013-03-29 06:43:00,
2013-03-29 02:48:00,36.0,34.6,29.80,South,173,0.0,0.0,94,0.00,,,0.00,VWS V14.01,2013-03-29 06:48:00,
2013-03-29 02:50:00,36.0,34.6,29.80,South,173,0.0,0.0,94,0.00,,,0.00,VWS V14.01,2013-03-29 06:50:00,
2013-03-29 02:53:00,36.0,34.6,29.80,South,173,0.0,0.0,94,0.00,,,0.00,VWS V14.01,2013-03-29 06:53:00,
2013-03-29 02:58:00,36.0,34.6,29.80,South,173,0.0,0.0,94,0.00,,,0.00,VWS V14.01,2013-03-29 06:58:00,
2013-03-29 03:03:00,35.1,34.9,29.80,South,173,0.0,0.0,99,0.00,,,0.00,VWS V14.01,2013-03-29 07:03:00,
2013-03-29 03:08:00,34.8,34.5,29.80,South,173,0.0,0.0,99,0.00,,,0.00,VWS V14.01,2013-03-29 07:08:00,
2013-03-29 03:10:00,34.8,34.8,29.80,South,173,0.0,0.0,100,0.00,,,0.00,VWS V14.01,2013-03-29 07:10:00,
2013-03-29 03:13:00,34.8,34.8,29.80,South,173,0.0,0.0,100,0.00,,,0.00,VWS V14.01,2013-03-29 07:13:00,
2013-03-29 03:18:00,34.6,34.3,29.77,South,173,0.0,0.0,99,0.00,,,0.00,VWS V14.01,2013-03-29 07:18:00,
2013-03-29 03:20:00,34.6,34.3,29.77,South,173,0.0,0.0,99,0.00,,,0.00,VWS V14.01,2013-03-29 07:20:00,
2013-03-29 03:28:00,34.6,34.6,29.77,South,173,0.0,0.0,100,0.00,,,0.00,VWS V14.01,2013-03-29 07:28:00,
2013-03-29 03:30:00,34.6,34.6,29.77,South,173,0.0,0.0,100,0.00,,,0.00,VWS V14.01,2013-03-29 07:30:00,
2013-03-29 03:33:00,34.6,34.6,29.77,South,173,0.0,0.0,100,0.00,,,0.00,VWS V14.01,2013-03-29 07:33:00,
2013-03-29 03:38:00,34.4,34.4,29.77,South,173,0.0,0.0,100,0.00,,,0.00,VWS V14.01,2013-03-29 07:38:00,
2013-03-29 03:40:00,34.4,34.4,29.77,South,173,0.0,0.0,100,0.00,,,0.00,VWS V14.01,2013-03-29 07:40:00,
2013-03-29 03:48:00,33.9,33.9,29.77,South,173,0.0,0.0,100,0.00,,,0.00,VWS V14.01,2013-03-29 07:48:00,
2013-03-29 03:50:00,33.9,33.9,29.77,South,173,0.0,0.0,100,0.00,,,0.00,VWS V14.01,2013-03-29 07:50:00,
2013-03-29 03:53:00,33.5,33.5,29.77,South,173,0.0,0.0,100,0.00,,,0.00,VWS V14.01,2013-03-29 07:53:00,
2013-03-29 03:58:00,33.5,33.5,29.77,South,173,0.0,0.0,100,0.00,,,0.00,VWS V14.01,2013-03-29 07:58:00,
2013-03-29 04:00:00,33.3,33.3,29.77,South,173,0.0,0.0,100,0.00,,,0.00,VWS V14.01,2013-03-29 08:00:00,
2013-03-29 04:03:00,33.2,33.2,29.77,South,173,0.0,0.0,100,0.00,,,0.00,VWS V14.01,2013-03-29 08:03:00,
2013-03-29 04:08:00,33.0,33.0,29.77,South,173,0.0,0.0,100,0.00,,,0.00,VWS V14.01,2013-03-29 08:08:00,
2013-03-29 04:13:00,33.0,33.0,29.77,South,173,0.0,0.0,100,0.00,,,0.00,VWS V14.01,2013-03-29 08:13:00,
2013-03-29 04:18:00,32.6,32.6,29.77,South,173,0.0,0.0,100,0.00,,,0.00,VWS V14.01,2013-03-29 08:18:00,
2013-03-29 04:20:00,32.6,32.6,29.77,South,173,0.0,0.0,100,0.00,,,0.00,VWS V14.01,2013-03-29 08:20:00,
2013-03-29 04:23:00,32.3,32.3,29.77,South,173,0.0,0.0,100,0.00,,,0.00,VWS V14.01,2013-03-29 08:23:00,
2013-03-29 04:28:00,32.1,32.1,29.77,South,173,0.0,0.0,100,0.00,,,0.00,VWS V14.01,2013-03-29 08:28:00,
2013-03-29 04:30:00,32.1,32.1,29.77,South,173,0.0,0.0,100,0.00,,,0.00,VWS V14.01,2013-03-29 08:30:00,
2013-03-29 04:33:00,31.7,31.7,29.77,South,173,0.0,0.0,100,0.00,,,0.00,VWS V14.01,2013-03-29 08:33:00,
2013-03-29 04:38:00,31.7,31.7,29.77,South,173,0.0,0.0,100,0.00,,,0.00,VWS V14.01,2013-03-29 08:38:00,
2013-03-29 04:40:00,31.7,31.7,29.77,South,173,0.0,0.0,100,0.00,,,0.00,VWS V14.01,2013-03-29 08:40:00,
2013-03-29 04:43:00,31.5,31.5,29.77,South,173,0.0,0.0,100,0.00,,,0.00,VWS V14.01,2013-03-29 08:43:00,
2013-03-29 04:48:00,31.5,31.5,29.77,South,173,0.0,0.0,100,0.00,,,0.00,VWS V14.01,2013-03-29 08:48:00,
2013-03-29 04:53:00,31.4,31.4,29.77,South,173,0.0,0.0,100,0.00,,,0.00,VWS V14.01,2013-03-29 08:53:00,
2013-03-29 04:58:00,31.4,31.4,29.77,South,173,0.0,0.0,100,0.00,,,0.00,VWS V14.01,2013-03-29 08:58:00,
2013-03-29 05:00:00,31.4,31.4,29.77,South,173,0.0,0.0,100,0.00,,,0.00,VWS V14.01,2013-03-29 09:00:00,
2013-03-29 05:08:00,31.4,31.4,29.77,South,173,0.0,0.0,100,0.00,,,0.00,VWS V14.01,2013-03-29 09:08:00,
2013-03-29 05:13:00,31.4,31.4,29.77,South,173,0.0,0.0,100,0.00,,,0.00,VWS V14.01,2013-03-29 09:13:00,
2013-03-29 05:18:00,31.2,31.2,29.77,South,173,0.0,0.0,100,0.00,,,0.00,VWS V14.01,2013-03-29 09:18:00,
2013-03-29 05:20:00,31.2,31.2,29.77,South,173,0.0,0.0,100,0.00,,,0.00,VWS V14.01,2013-03-29 09:20:00,
2013-03-29 05:23:00,31.2,31.2,29.77,South,173,0.0,0.0,100,0.00,,,0.00,VWS V14.01,2013-03-29 09:23:00,
2013-03-29 05:28:00,31.0,31.0,29.77,South,173,0.0,0.0,100,0.00,,,0.00,VWS V14.01,2013-03-29 09:28:00,
2013-03-29 05:30:00,31.0,31.0,29.77,South,173,0.0,0.0,100,0.00,,,0.00,VWS V14.01,2013-03-29 09:30:00,
2013-03-29 05:33:00,31.0,31.0,29.77,South,173,0.0,0.0,100,0.00,,,0.00,VWS V14.01,2013-03-29 09:33:00,
2013-03-29 05:38:00,30.6,30.6,29.77,South,173,0.0,0.0,100,0.00,,,0.00,VWS V14.01,2013-03-29 09:38:00,
2013-03-29 05:43:00,30.3,30.3,29.77,South,173,0.0,0.0,100,0.00,,,0.00,VWS V14.01,2013-03-29 09:43:00,
2013-03-29 05:48:00,30.1,30.1,29.77,South,173,0.0,0.0,100,0.00,,,0.00,VWS V14.01,2013-03-29 09:48:00,
2013-03-29 05:50:00,30.1,30.1,29.77,South,173,0.0,0.0,100,0.00,,,0.00,VWS V14.01,2013-03-29 09:50:00,
2013-03-29 05:53:00,29.7,29.7,29.77,South,173,0.0,0.0,100,0.00,,,0.00,VWS V14.01,2013-03-29 09:53:00,
2013-03-29 05:58:00,29.7,29.7,29.77,South,173,0.0,0.0,100,0.00,,,0.00,VWS V14.01,2013-03-29 09:58:00,
2013-03-29 06:00:00,29.2,29.2,29.77,South,173,0.0,0.0,100,0.00,,,0.00,VWS V14.01,2013-03-29 10:00:00,
2013-03-29 06:03:00,29.0,29.0,29.77,South,173,0.0,0.0,100,0.00,,,0.00,VWS V14.01,2013-03-29 10:03:00,
2013-03-29 06:08:00,28.8,28.8,29.77,South,173,0.0,0.0,100,0.00,,,0.00,VWS V14.01,2013-03-29 10:08:00,
2013-03-29 06:13:00,28.8,28.8,29.77,South,173,0.0,0.0,100,0.00,,,0.00,VWS V14.01,2013-03-29 10:13:00,
2013-03-29 06:18:00,28.7,28.7,29.77,South,173,0.0,0.0,100,0.00,,,0.00,VWS V14.01,2013-03-29 10:18:00,
2013-03-29 06:20:00,28.7,28.7,29.77,South,173,0.0,0.0,100,0.00,,,0.00,VWS V14.01,2013-03-29 10:20:00,
2013-03-29 06:23:00,28.7,28.7,29.77,South,173,0.0,0.0,100,0.00,,,0.00,VWS V14.01,2013-03-29 10:23:00,
2013-03-29 06:28:00,28.5,28.5,29.77,South,173,0.0,0.0,100,0.00,,,0.00,VWS V14.01,2013-03-29 10:28:00,
2013-03-29 06:30:00,28.5,28.5,29.77,South,173,0.0,0.0,100,0.00,,,0.00,VWS V14.01,2013-03-29 10:30:00,
2013-03-29 06:34:00,28.5,28.5,29.77,South,173,0.0,0.0,100,0.00,,,0.00,VWS V14.01,2013-03-29 10:34:00,
2013-03-29 06:39:00,28.3,28.3,29.77,South,173,0.0,0.0,100,0.00,,,0.00,VWS V14.01,2013-03-29 10:39:00,
2013-03-29 06:44:00,28.1,28.1,29.77,South,173,0.0,0.0,100,0.00,,,0.00,VWS V14.01,2013-03-29 10:44:00,
2013-03-29 06:49:00,28.1,28.1,29.77,South,173,0.0,0.0,100,0.00,,,0.00,VWS V14.01,2013-03-29 10:49:00,
2013-03-29 06:54:00,27.8,27.8,29.77,South,173,0.0,0.0,100,0.00,,,0.00,VWS V14.01,2013-03-29 10:54:00,
2013-03-29 06:59:00,27.8,27.8,29.77,South,173,0.0,0.0,100,0.00,,,0.00,VWS V14.01,2013-03-29 10:59:00,
2013-03-29 07:04:00,27.4,27.4,29.77,South,173,0.0,0.0,100,0.00,,,0.00,VWS V14.01,2013-03-29 11:04:00,
2013-03-29 07:09:00,27.2,27.2,29.77,South,173,0.0,0.0,100,0.00,,,0.00,VWS V14.01,2013-03-29 11:09:00,
2013-03-29 07:10:00,27.2,27.2,29.77,South,173,0.0,0.0,100,0.00,,,0.00,VWS V14.01,2013-03-29 11:10:00,
2013-03-29 07:14:00,27.2,27.2,29.77,South,173,0.0,0.0,100,0.00,,,0.00,VWS V14.01,2013-03-29 11:14:00,
2013-03-29 07:19:00,27.0,27.0,29.77,South,173,0.0,0.0,100,0.00,,,0.00,VWS V14.01,2013-03-29 11:19:00,
2013-03-29 07:20:00,27.2,27.2,29.77,South,173,0.0,0.0,100,0.00,,,0.00,VWS V14.01,2013-03-29 11:20:00,
2013-03-29 07:29:00,27.0,27.0,29.77,South,173,0.0,0.0,100,0.00,,,0.00,VWS V14.01,2013-03-29 11:29:00,
2013-03-29 07:30:00,27.0,27.0,29.77,South,173,0.0,0.0,100,0.00,,,0.00,VWS V14.01,2013-03-29 11:30:00,
2013-03-29 07:34:00,27.0,27.0,29.80,South,173,0.0,0.0,100,0.00,,,0.00,VWS V14.01,2013-03-29 11:34:00,
2013-03-29 07:39:00,27.0,27.0,29.80,South,173,0.0,0.0,100,0.00,,,0.00,VWS V14.01,2013-03-29 11:39:00,
2013-03-29 07:40:00,27.0,27.0,29.80,South,173,0.0,0.0,100,0.00,,,0.00,VWS V14.01,2013-03-29 11:40:00,
2013-03-29 07:44:00,27.0,27.0,29.80,South,173,0.0,0.0,100,0.00,,,0.00,VWS V14.01,2013-03-29 11:44:00,
2013-03-29 07:49:00,27.4,27.4,29.80,South,173,0.0,0.0,100,0.00,,,0.00,VWS V14.01,2013-03-29 11:49:00,
2013-03-29 07:54:00,28.1,28.1,29.80,South,173,0.0,0.0,100,0.00,,,0.00,VWS V14.01,2013-03-29 11:54:00,
2013-03-29 07:59:00,28.3,28.3,29.80,South,173,0.0,0.0,100,0.00,,,0.00,VWS V14.01,2013-03-29 11:59:00,
2013-03-29 08:04:00,28.5,28.5,29.80,South,173,0.0,0.0,100,0.00,,,0.00,VWS V14.01,2013-03-29 12:04:00,
2013-03-29 08:09:00,29.2,29.2,29.80,South,173,0.0,0.0,100,0.00,,,0.00,VWS V14.01,2013-03-29 12:09:00,
2013-03-29 08:10:00,29.2,29.2,29.80,South,173,0.0,0.0,100,0.00,,,0.00,VWS V14.01,2013-03-29 12:10:00,
2013-03-29 08:14:00,29.6,29.6,29.80,South,173,0.0,0.0,100,0.00,,,0.00,VWS V14.01,2013-03-29 12:14:00,
2013-03-29 08:19:00,30.1,30.1,29.80,South,173,0.0,0.0,100,0.00,,,0.00,VWS V14.01,2013-03-29 12:19:00,
2013-03-29 08:20:00,30.1,30.1,29.80,South,173,0.0,0.0,100,0.00,,,0.00,VWS V14.01,2013-03-29 12:20:00,
2013-03-29 08:24:00,30.1,30.1,29.80,South,173,0.0,0.0,100,0.00,,,0.00,VWS V14.01,2013-03-29 12:24:00,
2013-03-29 08:29:00,30.5,30.5,29.80,South,173,0.0,0.0,100,0.00,,,0.00,VWS V14.01,2013-03-29 12:29:00,
2013-03-29 08:30:00,30.5,30.5,29.80,South,173,0.0,0.0,100,0.00,,,0.00,VWS V14.01,2013-03-29 12:30:00,
2013-03-29 08:34:00,30.5,30.5,29.80,South,173,0.0,0.0,100,0.00,,,0.00,VWS V14.01,2013-03-29 12:34:00,
2013-03-29 08:39:00,32.4,32.4,29.80,South,173,0.0,0.0,100,0.00,,,0.00,VWS V14.01,2013-03-29 12:39:00,
2013-03-29 08:40:00,32.4,32.4,29.80,South,173,0.0,0.0,100,0.00,,,0.00,VWS V14.01,2013-03-29 12:40:00,
2013-03-29 08:44:00,34.2,34.2,29.80,South,173,0.0,0.0,100,0.00,,,0.00,VWS V14.01,2013-03-29 12:44:00,
2013-03-29 08:49:00,35.1,35.1,29.80,South,173,0.0,0.0,100,0.00,,,0.00,VWS V14.01,2013-03-29 12:49:00,
2013-03-29 08:54:00,36.4,36.4,29.80,South,173,0.0,0.0,100,0.00,,,0.00,VWS V14.01,2013-03-29 12:54:00,
2013-03-29 08:59:00,38.2,38.2,29.80,South,173,0.0,0.0,100,0.00,,,0.00,VWS V14.01,2013-03-29 12:59:00,
2013-03-29 09:00:00,38.2,38.2,29.80,South,173,0.0,0.0,100,0.00,,,0.00,VWS V14.01,2013-03-29 13:00:00,
2013-03-29 09:04:00,39.5,39.5,29.80,South,173,0.0,0.0,100,0.00,,,0.00,VWS V14.01,2013-03-29 13:04:00,
2013-03-29 09:09:00,39.5,39.5,29.80,South,173,0.0,0.0,100,0.00,,,0.00,VWS V14.01,2013-03-29 13:09:00,
2013-03-29 09:10:00,41.3,41.3,29.80,South,173,0.0,0.0,100,0.00,,,0.00,VWS V14.01,2013-03-29 13:10:00,
2013-03-29 09:14:00,42.3,42.3,29.80,SSE,159,0.0,0.0,100,0.00,,,0.00,VWS V14.01,2013-03-29 13:14:00,
2013-03-29 09:19:00,43.8,43.5,29.80,WNW,287,0.0,0.0,99,0.00,,,0.00,VWS V14.01,2013-03-29 13:19:00,
2013-03-29 09:20:00,44.3,42.2,29.80,WNW,287,0.0,0.0,92,0.00,,,0.00,VWS V14.01,2013-03-29 13:20:00,
2013-03-29 09:24:00,45.4,41.2,29.80,WNW,287,0.0,0.0,85,0.00,,,0.00,VWS V14.01,2013-03-29 13:24:00,
2013-03-29 09:29:00,47.0,36.5,29.80,NNW,335,0.0,0.0,67,0.00,,,0.00,VWS V14.01,2013-03-29 13:29:00,
2013-03-29 09:30:00,47.0,36.5,29.80,NNW,335,0.0,0.0,67,0.00,,,0.00,VWS V14.01,2013-03-29 13:30:00,
2013-03-29 09:34:00,47.0,36.5,29.80,NNE,17,0.0,0.0,67,0.00,,,0.00,VWS V14.01,2013-03-29 13:34:00,
2013-03-29 09:39:00,49.2,36.8,29.80,NE,45,0.0,0.0,62,0.00,,,0.00,VWS V14.01,2013-03-29 13:39:00,
2013-03-29 09:40:00,49.2,36.8,29.80,NE,45,0.0,0.0,62,0.00,,,0.00,VWS V14.01,2013-03-29 13:40:00,
2013-03-29 09:44:00,50.4,37.0,29.80,ENE,66,0.0,0.0,60,0.00,,,0.00,VWS V14.01,2013-03-29 13:44:00,
2013-03-29 09:49:00,51.2,37.7,29.80,SW,219,3.6,3.6,60,0.00,,,0.00,VWS V14.01,2013-03-29 13:49:00,
2013-03-29 09:50:00,51.2,37.7,29.80,SW,219,3.6,3.6,60,0.00,,,0.00,VWS V14.01,2013-03-29 13:50:00,
2013-03-29 09:54:00,52.4,38.9,29.80,North,357,0.0,3.6,60,0.00,,,0.00,VWS V14.01,2013-03-29 13:54:00,
2013-03-29 09:59:00,53.1,38.5,29.80,SW,214,0.0,3.6,58,0.00,,,0.00,VWS V14.01,2013-03-29 13:59:00,
2013-03-29 10:00:00,53.1,38.5,29.80,SW,214,0.0,3.6,58,0.00,,,0.00,VWS V14.01,2013-03-29 14:00:00,
2013-03-29 10:04:00,53.3,36.6,29.80,NNE,21,2.7,2.7,53,0.00,,,0.00,VWS V14.01,2013-03-29 14:04:00,
2013-03-29 10:09:00,52.8,36.1,29.80,North,1,0.0,3.6,53,0.00,,,0.00,VWS V14.01,2013-03-29 14:09:00,
2013-03-29 10:14:00,53.0,36.3,29.80,SE,130,0.0,0.0,53,0.00,,,0.00,VWS V14.01,2013-03-29 14:14:00,
2013-03-29 10:19:00,54.4,36.5,29.80,SW,232,0.0,0.0,51,0.00,,,0.00,VWS V14.01,2013-03-29 14:19:00,
2013-03-29 10:20:00,54.4,36.5,29.80,SW,232,0.0,0.0,51,0.00,,,0.00,VWS V14.01,2013-03-29 14:20:00,
2013-03-29 10:24:00,54.6,36.6,29.83,NNE,28,3.6,3.6,51,0.00,,,0.00,VWS V14.01,2013-03-29 14:24:00,
2013-03-29 10:29:00,54.0,37.3,29.83,NE,40,4.0,4.9,53,0.00,,,0.00,VWS V14.01,2013-03-29 14:29:00,
2013-03-29 10:30:00,54.0,37.3,29.83,NE,40,4.0,4.9,53,0.00,,,0.00,VWS V14.01,2013-03-29 14:30:00,
2013-03-29 10:34:00,53.7,36.9,29.83,NNE,26,3.6,4.0,53,0.00,,,0.00,VWS V14.01,2013-03-29 14:34:00,
2013-03-29 10:39:00,54.2,37.4,29.83,North,357,4.0,4.0,53,0.00,,,0.00,VWS V14.01,2013-03-29 14:39:00,
2013-03-29 10:40:00,54.2,37.4,29.83,North,357,4.0,4.0,53,0.00,,,0.00,VWS V14.01,2013-03-29 14:40:00,
2013-03-29 10:44:00,54.2,37.4,29.83,North,11,3.6,4.0,53,0.00,,,0.00,VWS V14.01,2013-03-29 14:44:00,
2013-03-29 10:49:00,54.6,36.6,29.83,NE,47,0.0,4.5,51,0.00,,,0.00,VWS V14.01,2013-03-29 14:49:00,
2013-03-29 10:50:00,54.6,36.6,29.83,NE,47,0.0,4.5,51,0.00,,,0.00,VWS V14.01,2013-03-29 14:50:00,
2013-03-29 10:54:00,55.5,37.5,29.83,NE,36,5.4,5.4,51,0.00,,,0.00,VWS V14.01,2013-03-29 14:54:00,
2013-03-29 10:59:00,55.5,37.5,29.83,NNE,14,5.4,5.4,51,0.00,,,0.00,VWS V14.01,2013-03-29 14:59:00,
2013-03-29 11:00:00,55.5,37.5,29.83,North,8,0.0,5.4,51,0.00,,,0.00,VWS V14.01,2013-03-29 15:00:00,
2013-03-29 11:04:00,55.8,37.8,29.83,NE,38,0.0,2.7,51,0.00,,,0.00,VWS V14.01,2013-03-29 15:04:00,
2013-03-29 11:09:00,55.8,37.8,29.83,WNW,283,2.7,3.1,51,0.00,,,0.00,VWS V14.01,2013-03-29 15:09:00,
2013-03-29 11:10:00,55.8,37.8,29.83,WNW,283,2.7,3.1,51,0.00,,,0.00,VWS V14.01,2013-03-29 15:10:00,
2013-03-29 11:14:00,58.2,36.2,29.83,North,7,0.0,3.6,44,0.00,,,0.00,VWS V14.01,2013-03-29 15:14:00,
2013-03-29 11:19:00,58.9,36.9,29.83,West,276,2.7,3.6,44,0.00,,,0.00,VWS V14.01,2013-03-29 15:19:00,
2013-03-29 11:20:00,58.9,36.9,29.83,West,276,2.7,3.6,44,0.00,,,0.00,VWS V14.01,2013-03-29 15:20:00,
2013-03-29 11:24:00,59.6,37.5,29.83,SW,229,0.0,2.7,44,0.00,,,0.00,VWS V14.01,2013-03-29 15:24:00,
2013-03-29 11:29:00,60.3,38.2,29.83,NE,52,2.2,2.7,44,0.00,,,0.00,VWS V14.01,2013-03-29 15:29:00,
2013-03-29 11:30:00,60.3,38.2,29.83,NE,52,2.2,2.7,44,0.00,,,0.00,VWS V14.01,2013-03-29 15:30:00,
2013-03-29 11:34:00,60.3,38.2,29.83,NNE,16,0.0,2.2,44,0.00,,,0.00,VWS V14.01,2013-03-29 15:34:00,
2013-03-29 11:39:00,61.2,39.0,29.83,South,189,0.0,2.2,44,0.00,,,0.00,VWS V14.01,2013-03-29 15:39:00,
2013-03-29 11:40:00,61.2,39.0,29.83,South,189,0.0,2.2,44,0.00,,,0.00,VWS V14.01,2013-03-29 15:40:00,
2013-03-29 11:49:00,62.7,38.9,29.83,South,185,0.0,3.6,41,0.00,,,0.00,VWS V14.01,2013-03-29 15:49:00,
2013-03-29 11:50:00,62.7,38.9,29.83,WSW,247,2.7,3.6,41,0.00,,,0.00,VWS V14.01,2013-03-29 15:50:00,
2013-03-29 11:54:00,62.0,38.3,29.83,ESE,109,0.0,3.6,41,0.00,,,0.00,VWS V14.01,2013-03-29 15:54:00,
2013-03-29 11:59:00,62.0,38.3,29.83,South,184,0.0,3.6,41,0.00,,,0.00,VWS V14.01,2013-03-29 15:59:00,
2013-03-29 12:00:00,62.0,38.3,29.83,South,184,0.0,3.6,41,0.00,,,0.00,VWS V14.01,2013-03-29 16:00:00,
2013-03-29 12:04:00,63.2,39.4,29.83,West,266,0.0,0.0,41,0.00,,,0.00,VWS V14.01,2013-03-29 16:04:00,
2013-03-29 12:09:00,63.0,39.2,29.83,NNE,29,3.6,4.0,41,0.00,,,0.00,VWS V14.01,2013-03-29 16:09:00,
2013-03-29 12:10:00,63.0,39.2,29.83,NNE,29,3.6,4.0,41,0.00,,,0.00,VWS V14.01,2013-03-29 16:10:00,
2013-03-29 12:14:00,61.6,37.9,29.83,NW,304,2.7,3.6,41,0.00,,,0.00,VWS V14.01,2013-03-29 16:14:00,
2013-03-29 12:19:00,61.2,39.0,29.83,NNE,25,3.1,3.6,44,0.00,,,0.00,VWS V14.01,2013-03-29 16:19:00,
2013-03-29 12:20:00,61.2,39.0,29.83,NNE,25,3.1,3.6,44,0.00,,,0.00,VWS V14.01,2013-03-29 16:20:00,
2013-03-29 12:24:00,61.2,39.0,29.83,NNE,18,3.1,4.0,44,0.00,,,0.00,VWS V14.01,2013-03-29 16:24:00,
2013-03-29 12:29:00,62.7,38.9,29.83,ENE,66,4.0,4.0,41,0.00,,,0.00,VWS V14.01,2013-03-29 16:29:00,
2013-03-29 12:30:00,62.9,39.1,29.83,ENE,66,4.0,4.0,41,0.00,,,0.00,VWS V14.01,2013-03-29 16:30:00,
2013-03-29 12:39:00,65.2,39.7,29.83,SSE,151,0.0,4.0,39,0.00,,,0.00,VWS V14.01,2013-03-29 16:39:00,
2013-03-29 12:40:00,65.2,39.7,29.83,SSE,151,0.0,4.0,39,0.00,,,0.00,VWS V14.01,2013-03-29 16:40:00,
2013-03-29 12:49:00,66.1,40.5,29.83,ENE,61,0.0,3.6,39,0.00,,,0.00,VWS V14.01,2013-03-29 16:49:00,
2013-03-29 12:50:00,66.1,40.5,29.83,ENE,61,0.0,3.6,39,0.00,,,0.00,VWS V14.01,2013-03-29 16:50:00,
2013-03-29 12:54:00,66.1,40.5,29.83,SE,142,2.7,2.7,39,0.00,,,0.00,VWS V14.01,2013-03-29 16:54:00,
2013-03-29 12:59:00,66.1,40.5,29.83,South,188,3.6,3.6,39,0.00,,,0.00,VWS V14.01,2013-03-29 16:59:00,
2013-03-29 13:04:00,66.6,41.0,29.83,SSW,206,0.0,3.6,39,0.00,,,0.00,VWS V14.01,2013-03-29 17:04:00,
2013-03-29 13:10:00,66.8,41.2,29.83,West,259,3.1,3.6,39,0.00,,,0.00,VWS V14.01,2013-03-29 17:10:00,
2013-03-29 13:15:00,66.6,41.0,29.83,WNW,290,2.7,3.1,39,0.00,,,0.00,VWS V14.01,2013-03-29 17:15:00,
2013-03-29 13:20:00,66.8,41.2,29.83,SSE,167,0.0,3.1,39,0.00,,,0.00,VWS V14.01,2013-03-29 17:20:00,
2013-03-29 13:25:00,67.2,41.5,29.83,East,89,2.7,2.7,39,0.00,,,0.00,VWS V14.01,2013-03-29 17:25:00,
2013-03-29 13:30:00,67.4,41.6,29.83,East,88,5.8,5.8,39,0.00,,,0.00,VWS V14.01,2013-03-29 17:30:00,
2013-03-29 13:35:00,65.7,40.2,29.80,NNW,346,2.7,5.8,39,0.00,,,0.00,VWS V14.01,2013-03-29 17:35:00,
2013-03-29 13:40:00,65.6,40.0,29.80,SSW,207,4.9,5.8,39,0.00,,,0.00,VWS V14.01,2013-03-29 17:40:00,
2013-03-29 13:45:00,65.6,40.0,29.80,ENE,63,0.0,4.9,39,0.00,,,0.00,VWS V14.01,2013-03-29 17:45:00,
2013-03-29 13:50:00,66.1,40.5,29.80,East,84,4.0,4.9,39,0.00,,,0.00,VWS V14.01,2013-03-29 17:50:00,
2013-03-29 13:55:00,66.1,40.5,29.80,SSE,149,3.1,4.9,39,0.00,,,0.00,VWS V14.01,2013-03-29 17:55:00,
2013-03-29 14:00:00,66.6,41.0,29.80,NNE,19,3.1,3.1,39,0.00,,,0.00,VWS V14.01,2013-03-29 18:00:00,
2013-03-29 14:05:00,65.6,40.0,29.80,West,275,2.2,3.1,39,0.00,,,0.00,VWS V14.01,2013-03-29 18:05:00,
2013-03-29 14:10:00,65.6,40.0,29.80,South,169,2.7,3.1,39,0.00,,,0.00,VWS V14.01,2013-03-29 18:10:00,
2013-03-29 14:15:00,66.6,41.0,29.80,ESE,102,0.0,4.0,39,0.00,,,0.00,VWS V14.01,2013-03-29 18:15:00,
2013-03-29 14:20:00,66.8,41.2,29.80,NE,44,0.0,4.0,39,0.00,,,0.00,VWS V14.01,2013-03-29 18:20:00,
2013-03-29 14:25:00,66.8,41.2,29.80,ESE,122,3.1,3.1,39,0.00,,,0.00,VWS V14.01,2013-03-29 18:25:00,
2013-03-29 14:30:00,67.7,42.0,29.80,South,170,3.1,3.1,39,0.00,,,0.00,VWS V14.01,2013-03-29 18:30:00,
2013-03-29 14:35:00,67.7,42.0,29.80,SW,216,2.7,4.9,39,0.00,,,0.00,VWS V14.01,2013-03-29 18:35:00,
2013-03-29 14:40:00,68.1,42.3,29.80,SW,232,4.0,4.0,39,0.00,,,0.00,VWS V14.01,2013-03-29 18:40:00,
2013-03-29 14:45:00,68.1,42.3,29.80,SSW,201,4.5,4.5,39,0.00,,,0.00,VWS V14.01,2013-03-29 18:45:00,
2013-03-29 14:50:00,67.7,42.0,29.77,NE,50,3.1,4.5,39,0.00,,,0.00,VWS V14.01,2013-03-29 18:50:00,
2013-03-29 14:55:00,66.8,41.2,29.77,SSE,159,3.1,5.4,39,0.00,,,0.00,VWS V14.01,2013-03-29 18:55:00,
2013-03-29 15:00:00,66.8,41.2,29.77,SSE,159,3.1,5.4,39,0.00,,,0.00,VWS V14.01,2013-03-29 19:00:00,
2013-03-29 15:05:00,67.9,42.1,29.77,ENE,75,4.0,4.0,39,0.00,,,0.00,VWS V14.01,2013-03-29 19:05:00,
2013-03-29 15:10:00,68.4,42.6,29.77,South,191,3.1,3.1,39,0.00,,,0.00,VWS V14.01,2013-03-29 19:10:00,
2013-03-29 15:15:00,69.7,43.7,29.77,ENE,68,4.0,4.0,39,0.00,,,0.00,VWS V14.01,2013-03-29 19:15:00,
2013-03-29 15:20:00,69.7,43.7,29.77,NE,52,3.6,5.4,39,0.00,,,0.00,VWS V14.01,2013-03-29 19:20:00,
2013-03-29 15:25:00,69.2,43.2,29.77,ENE,61,5.4,5.4,39,0.00,,,0.00,VWS V14.01,2013-03-29 19:25:00,
2013-03-29 15:30:00,67.7,42.0,29.77,ENE,69,0.0,5.4,39,0.00,,,0.00,VWS V14.01,2013-03-29 19:30:00,
2013-03-29 15:35:00,67.4,41.6,29.77,East,85,4.5,6.3,39,0.00,,,0.00,VWS V14.01,2013-03-29 19:35:00,
2013-03-29 15:40:00,66.5,40.8,29.77,NE,51,4.0,4.0,39,0.00,,,0.00,VWS V14.01,2013-03-29 19:40:00,
2013-03-29 15:45:00,66.5,40.8,29.77,ESE,119,0.0,4.0,39,0.00,,,0.00,VWS V14.01,2013-03-29 19:45:00,
2013-03-29 15:50:00,66.6,41.0,29.77,ENE,57,2.2,2.2,39,0.00,,,0.00,VWS V14.01,2013-03-29 19:50:00,
2013-03-29 15:55:00,66.5,40.8,29.77,ENE,59,0.0,2.2,39,0.00,,,0.00,VWS V14.01,2013-03-29 19:55:00,
2013-03-29 16:00:00,66.8,41.2,29.77,SW,235,0.0,3.6,39,0.00,,,0.00,VWS V14.01,2013-03-29 20:00:00,
2013-03-29 16:05:00,66.8,41.2,29.77,ENE,78,3.1,3.1,39,0.00,,,0.00,VWS V14.01,2013-03-29 20:05:00,
2013-03-29 16:10:00,66.8,41.2,29.77,South,188,3.6,3.6,39,0.00,,,0.00,VWS V14.01,2013-03-29 20:10:00,
2013-03-29 16:15:00,67.9,42.1,29.77,SW,225,0.0,4.0,39,0.00,,,0.00,VWS V14.01,2013-03-29 20:15:00,
2013-03-29 16:20:00,67.9,42.1,29.77,WNW,300,3.6,3.6,39,0.00,,,0.00,VWS V14.01,2013-03-29 20:20:00,
2013-03-29 16:25:00,68.8,42.9,29.77,NE,37,2.7,3.6,39,0.00,,,0.00,VWS V14.01,2013-03-29 20:25:00,
2013-03-29 16:30:00,68.8,42.9,29.77,SSE,155,0.0,3.6,39,0.00,,,0.00,VWS V14.01,2013-03-29 20:30:00,
2013-03-29 16:35:00,68.8,42.9,29.77,SSE,155,4.9,4.9,39,0.00,,,0.00,VWS V14.01,2013-03-29 20:35:00,
2013-03-29 16:40:00,69.7,43.7,29.74,East,97,3.1,4.9,39,0.00,,,0.00,VWS V14.01,2013-03-29 20:40:00,
2013-03-29 16:45:00,68.6,42.8,29.74,East,82,0.0,3.1,39,0.00,,,0.00,VWS V14.01,2013-03-29 20:45:00,
2013-03-29 16:50:00,67.0,41.3,29.77,NE,56,0.0,2.7,39,0.00,,,0.00,VWS V14.01,2013-03-29 20:50:00,
2013-03-29 16:55:00,67.0,41.3,29.77,ENE,69,0.0,2.7,39,0.00,,,0.00,VWS V14.01,2013-03-29 20:55:00,
2013-03-29 17:00:00,67.0,41.3,29.77,ENE,69,0.0,2.7,39,0.00,,,0.00,VWS V14.01,2013-03-29 21:00:00,
2013-03-29 17:05:00,67.7,42.0,29.77,South,186,2.7,3.6,39,0.00,,,0.00,VWS V14.01,2013-03-29 21:05:00,
2013-03-29 17:10:00,68.1,42.3,29.77,NNE,13,0.0,3.6,39,0.00,,,0.00,VWS V14.01,2013-03-29 21:10:00,
2013-03-29 17:15:00,68.1,42.3,29.77,ENE,78,4.0,4.0,39,0.00,,,0.00,VWS V14.01,2013-03-29 21:15:00,
2013-03-29 17:20:00,68.1,42.3,29.77,South,175,2.2,4.0,39,0.00,,,0.00,VWS V14.01,2013-03-29 21:20:00,
2013-03-29 17:25:00,67.9,42.1,29.77,SSW,192,3.1,3.1,39,0.00,,,0.00,VWS V14.01,2013-03-29 21:25:00,
2013-03-29 17:30:00,67.9,42.1,29.77,East,82,2.7,8.7,39,0.00,,,0.00,VWS V14.01,2013-03-29 21:30:00,
2013-03-29 17:35:00,68.3,42.4,29.77,East,81,3.6,3.6,39,0.00,,,0.00,VWS V14.01,2013-03-29 21:35:00,
2013-03-29 17:40:00,68.1,42.3,29.77,East,84,2.7,3.6,39,0.00,,,0.00,VWS V14.01,2013-03-29 21:40:00,
2013-03-29 17:45:00,67.9,42.1,29.77,East,82,2.7,8.1,39,0.00,,,0.00,VWS V14.01,2013-03-29 21:45:00,
2013-03-29 17:50:00,67.9,42.1,29.77,NE,50,2.7,8.1,39,0.00,,,0.00,VWS V14.01,2013-03-29 21:50:00,
2013-03-29 17:55:00,67.9,42.1,29.77,ENE,75,3.1,3.6,39,0.00,,,0.00,VWS V14.01,2013-03-29 21:55:00,
2013-03-29 18:00:00,65.6,40.0,29.77,ENE,74,0.0,3.6,39,0.00,,,0.00,VWS V14.01,2013-03-29 22:00:00,
2013-03-29 18:05:00,65.2,39.7,29.77,NE,54,2.7,2.7,39,0.00,,,0.00,VWS V14.01,2013-03-29 22:05:00,
2013-03-29 18:10:00,65.0,41.0,29.77,NE,54,0.0,2.7,41,0.00,,,0.00,VWS V14.01,2013-03-29 22:10:00,
2013-03-29 18:15:00,65.0,41.0,29.77,NE,54,0.0,0.0,41,0.00,,,0.00,VWS V14.01,2013-03-29 22:15:00,
2013-03-29 18:20:00,65.0,41.0,29.74,NE,54,0.0,0.0,41,0.00,,,0.00,VWS V14.01,2013-03-29 22:20:00,
2013-03-29 18:25:00,66.3,40.7,29.74,NE,54,0.0,0.0,39,0.00,,,0.00,VWS V14.01,2013-03-29 22:25:00,
2013-03-29 18:31:00,66.5,40.8,29.74,SSE,167,0.0,0.0,39,0.00,,,0.00,VWS V14.01,2013-03-29 22:31:00,
2013-03-29 18:36:00,66.3,40.7,29.74,SSE,167,0.0,0.0,39,0.00,,,0.00,VWS V14.01,2013-03-29 22:36:00,
2013-03-29 18:40:00,66.3,40.7,29.77,SSE,167,0.0,0.0,39,0.00,,,0.00,VWS V14.01,2013-03-29 22:40:00,
2013-03-29 18:41:00,66.3,40.7,29.77,SSE,167,0.0,0.0,39,0.00,,,0.00,VWS V14.01,2013-03-29 22:41:00,
2013-03-29 18:46:00,65.6,40.0,29.77,SSW,212,0.0,0.0,39,0.00,,,0.00,VWS V14.01,2013-03-29 22:46:00,
2013-03-29 18:50:00,65.4,39.9,29.77,SSW,212,0.0,0.0,39,0.00,,,0.00,VWS V14.01,2013-03-29 22:50:00,
2013-03-29 18:56:00,65.4,39.9,29.77,SSW,212,0.0,0.0,39,0.00,,,0.00,VWS V14.01,2013-03-29 22:56:00,
2013-03-29 19:00:00,63.8,39.9,29.77,SSW,212,0.0,0.0,41,0.00,,,0.00,VWS V14.01,2013-03-29 23:00:00,
2013-03-29 19:06:00,63.8,39.9,29.77,SSW,212,0.0,0.0,41,0.00,,,0.00,VWS V14.01,2013-03-29 23:06:00,
2013-03-29 19:10:00,62.5,38.8,29.77,SSW,212,0.0,0.0,41,0.00,,,0.00,VWS V14.01,2013-03-29 23:10:00,
2013-03-29 19:11:00,62.5,38.8,29.77,SSW,212,0.0,0.0,41,0.00,,,0.00,VWS V14.01,2013-03-29 23:11:00,
2013-03-29 19:16:00,62.0,38.3,29.77,SSW,212,0.0,0.0,41,0.00,,,0.00,VWS V14.01,2013-03-29 23:16:00,
2013-03-29 19:20:00,62.0,38.3,29.77,SSW,212,0.0,0.0,41,0.00,,,0.00,VWS V14.01,2013-03-29 23:20:00,
2013-03-29 19:21:00,62.0,38.3,29.77,SSW,212,0.0,0.0,41,0.00,,,0.00,VWS V14.01,2013-03-29 23:21:00,
2013-03-29 19:26:00,60.9,41.2,29.77,SSW,212,0.0,0.0,48,0.00,,,0.00,VWS V14.01,2013-03-29 23:26:00,
2013-03-29 19:31:00,60.3,40.8,29.77,SSW,212,0.0,0.0,48,0.00,,,0.00,VWS V14.01,2013-03-29 23:31:00,
2013-03-29 19:36:00,60.3,40.8,29.77,SSW,212,0.0,0.0,48,0.00,,,0.00,VWS V14.01,2013-03-29 23:36:00,
2013-03-29 19:40:00,59.6,43.5,29.77,SSW,212,0.0,0.0,55,0.00,,,0.00,VWS V14.01,2013-03-29 23:40:00,
2013-03-29 19:41:00,59.6,43.5,29.77,SSW,212,0.0,0.0,55,0.00,,,0.00,VWS V14.01,2013-03-29 23:41:00,
2013-03-29 19:46:00,59.6,43.5,29.77,SSW,212,0.0,0.0,55,0.00,,,0.00,VWS V14.01,2013-03-29 23:46:00,
2013-03-29 19:50:00,58.7,42.7,29.77,SSW,212,0.0,0.0,55,0.00,,,0.00,VWS V14.01,2013-03-29 23:50:00,
2013-03-29 20:00:00,58.4,43.4,29.77,SSW,212,0.0,0.0,58,0.00,,,0.00,VWS V14.01,2013-03-30 00:00:00,
2013-03-29 20:01:00,58.4,43.4,29.77,SSW,212,0.0,0.0,58,0.00,,,0.00,VWS V14.01,2013-03-30 00:01:00,
2013-03-29 20:06:00,58.0,43.1,29.77,SSW,212,0.0,0.0,58,0.00,,,0.00,VWS V14.01,2013-03-30 00:06:00,
2013-03-29 20:11:00,58.0,43.1,29.77,SSW,212,0.0,0.0,58,0.00,,,0.00,VWS V14.01,2013-03-30 00:11:00,
2013-03-29 20:20:00,57.1,43.3,29.77,SSW,212,0.0,0.0,60,0.00,,,0.00,VWS V14.01,2013-03-30 00:20:00,
2013-03-29 20:27:00,56.7,42.9,29.77,SSW,212,0.0,0.0,60,0.00,,,0.00,VWS V14.01,2013-03-30 00:27:00,
2013-03-29 20:30:00,56.7,42.9,29.77,SSW,212,0.0,0.0,60,0.00,,,0.00,VWS V14.01,2013-03-30 00:30:00,
2013-03-29 20:32:00,56.4,42.6,29.77,SSW,212,0.0,0.0,60,0.00,,,0.00,VWS V14.01,2013-03-30 00:32:00,
2013-03-29 20:37:00,56.4,42.6,29.77,SSW,212,0.0,0.0,60,0.00,,,0.00,VWS V14.01,2013-03-30 00:37:00,
2013-03-29 20:40:00,56.4,42.6,29.77,SSW,212,0.0,0.0,60,0.00,,,0.00,VWS V14.01,2013-03-30 00:40:00,
2013-03-29 20:47:00,56.0,43.2,29.77,WSW,241,0.0,2.7,62,0.00,,,0.00,VWS V14.01,2013-03-30 00:47:00,
2013-03-29 20:52:00,56.0,43.2,29.77,WSW,241,0.0,0.0,62,0.00,,,0.00,VWS V14.01,2013-03-30 00:52:00,
2013-03-29 20:57:00,56.0,43.2,29.77,WSW,242,2.2,2.2,62,0.00,,,0.00,VWS V14.01,2013-03-30 00:57:00,
2013-03-29 21:02:00,56.2,41.4,29.77,SW,226,0.0,0.0,58,0.00,,,0.00,VWS V14.01,2013-03-30 01:02:00,
2013-03-29 21:07:00,56.6,41.8,29.77,SW,226,0.0,0.0,58,0.00,,,0.00,VWS V14.01,2013-03-30 01:07:00,
2013-03-29 21:12:00,56.7,41.9,29.77,SW,226,0.0,0.0,58,0.00,,,0.00,VWS V14.01,2013-03-30 01:12:00,
2013-03-29 21:17:00,56.7,41.9,29.77,SW,226,0.0,0.0,58,0.00,,,0.00,VWS V14.01,2013-03-30 01:17:00,
2013-03-29 21:20:00,56.7,41.9,29.77,South,190,0.0,0.0,58,0.00,,,0.00,VWS V14.01,2013-03-30 01:20:00,
2013-03-29 21:27:00,56.6,41.8,29.77,South,190,0.0,0.0,58,0.00,,,0.00,VWS V14.01,2013-03-30 01:27:00,
2013-03-29 21:30:00,56.4,41.6,29.77,South,190,0.0,0.0,58,0.00,,,0.00,VWS V14.01,2013-03-30 01:30:00,
2013-03-29 21:32:00,56.2,41.4,29.77,South,190,0.0,0.0,58,0.00,,,0.00,VWS V14.01,2013-03-30 01:32:00,
2013-03-29 21:37:00,56.2,41.4,29.77,South,190,0.0,0.0,58,0.00,,,0.00,VWS V14.01,2013-03-30 01:37:00,
2013-03-29 21:47:00,56.0,41.2,29.77,South,190,0.0,0.0,58,0.00,,,0.00,VWS V14.01,2013-03-30 01:47:00,
2013-03-29 21:52:00,55.7,40.9,29.77,South,190,0.0,0.0,58,0.00,,,0.00,VWS V14.01,2013-03-30 01:52:00,
2013-03-29 21:57:00,55.7,40.9,29.77,South,190,0.0,0.0,58,0.00,,,0.00,VWS V14.01,2013-03-30 01:57:00,
2013-03-29 22:02:00,55.3,40.6,29.77,South,190,0.0,0.0,58,0.00,,,0.00,VWS V14.01,2013-03-30 02:02:00,
2013-03-29 22:07:00,55.3,40.6,29.77,South,190,0.0,0.0,58,0.00,,,0.00,VWS V14.01,2013-03-30 02:07:00,
2013-03-29 22:10:00,55.3,40.6,29.77,South,190,0.0,0.0,58,0.00,,,0.00,VWS V14.01,2013-03-30 02:10:00,
2013-03-29 22:12:00,55.3,40.6,29.77,South,190,0.0,0.0,58,0.00,,,0.00,VWS V14.01,2013-03-30 02:12:00,
2013-03-29 22:17:00,54.8,40.1,29.77,South,190,0.0,0.0,58,0.00,,,0.00,VWS V14.01,2013-03-30 02:17:00,
2013-03-29 22:20:00,54.8,40.1,29.77,South,190,0.0,0.0,58,0.00,,,0.00,VWS V14.01,2013-03-30 02:20:00,
2013-03-29 22:22:00,54.8,40.1,29.74,South,190,0.0,0.0,58,0.00,,,0.00,VWS V14.01,2013-03-30 02:22:00,
2013-03-29 22:27:00,54.6,39.9,29.74,South,190,0.0,0.0,58,0.00,,,0.00,VWS V14.01,2013-03-30 02:27:00,
2013-03-29 22:30:00,54.6,39.9,29.74,South,190,0.0,0.0,58,0.00,,,0.00,VWS V14.01,2013-03-30 02:30:00,
2013-03-29 22:32:00,54.4,39.7,29.77,South,190,0.0,0.0,58,0.00,,,0.00,VWS V14.01,2013-03-30 02:32:00,
2013-03-29 22:37:00,54.4,39.7,29.77,South,190,0.0,0.0,58,0.00,,,0.00,VWS V14.01,2013-03-30 02:37:00,
2013-03-29 22:42:00,54.2,40.6,29.77,South,190,0.0,0.0,60,0.00,,,0.00,VWS V14.01,2013-03-30 02:42:00,
2013-03-29 22:47:00,54.2,40.6,29.77,South,190,0.0,0.0,60,0.00,,,0.00,VWS V14.01,2013-03-30 02:47:00,
2013-03-29 22:52:00,54.0,40.4,29.77,SSW,203,0.0,0.0,60,0.00,,,0.00,VWS V14.01,2013-03-30 02:52:00,
2013-03-29 22:57:00,54.0,40.4,29.77,WSW,249,0.0,0.0,60,0.00,,,0.00,VWS V14.01,2013-03-30 02:57:00,
2013-03-29 23:03:00,54.0,40.4,29.77,SSE,168,2.7,2.7,60,0.00,,,0.00,VWS V14.01,2013-03-30 03:03:00,
2013-03-29 23:08:00,54.4,39.7,29.77,SSW,200,0.0,2.7,58,0.00,,,0.00,VWS V14.01,2013-03-30 03:08:00,
2013-03-29 23:10:00,54.4,39.7,29.77,SSW,200,0.0,2.7,58,0.00,,,0.00,VWS V14.01,2013-03-30 03:10:00,
2013-03-29 23:13:00,54.4,39.7,29.77,SSW,192,0.0,0.0,58,0.00,,,0.00,VWS V14.01,2013-03-30 03:13:00,
2013-03-29 23:18:00,54.2,40.6,29.77,SSW,192,0.0,0.0,60,0.00,,,0.00,VWS V14.01,2013-03-30 03:18:00,
2013-03-29 23:20:00,54.2,40.6,29.77,SSW,192,0.0,0.0,60,0.00,,,0.00,VWS V14.01,2013-03-30 03:20:00,
2013-03-29 23:23:00,54.2,40.6,29.77,SSW,192,0.0,0.0,60,0.00,,,0.00,VWS V14.01,2013-03-30 03:23:00,
2013-03-29 23:28:00,53.9,40.2,29.77,SSW,206,0.0,0.0,60,0.00,,,0.00,VWS V14.01,2013-03-30 03:28:00,
2013-03-29 23:33:00,53.5,39.9,29.77,SSW,197,0.0,0.0,60,0.00,,,0.00,VWS V14.01,2013-03-30 03:33:00,
2013-03-29 23:38:00,53.5,39.9,29.77,SSW,197,0.0,0.0,60,0.00,,,0.00,VWS V14.01,2013-03-30 03:38:00,
2013-03-29 23:39:00,53.5,39.9,29.77,SSW,197,0.0,0.0,60,0.00,,,0.00,VWS V14.01,2013-03-30 03:39:00,
2013-03-29 23:48:00,53.0,39.4,29.77,SSW,198,0.0,0.0,60,0.00,,,0.00,VWS V14.01,2013-03-30 03:48:00,
2013-03-29 23:50:00,52.8,39.2,29.77,SSW,197,0.0,0.0,60,0.00,,,0.00,VWS V14.01,2013-03-30 03:50:00,
2013-03-29 23:58:00,52.8,39.2,29.77,SSW,198,0.0,0.0,60,0.00,,,0.00,VWS V14.01,2013-03-30 03:58:00,